createdAt,value
2023-05-06T00:01:05.839Z,15.73
2023-05-06T00:03:32.639Z,15.76
2023-05-06T00:05:59.494Z,15.78
2023-05-06T00:08:26.243Z,15.76
2023-05-06T00:10:52.776Z,15.69
2023-05-06T00:13:19.403Z,15.72
2023-05-06T00:15:46.012Z,15.57
2023-05-06T00:18:33.986Z,15.51
2023-05-06T00:21:18.982Z,15.62
2023-05-06T00:23:45.596Z,15.51
2023-05-06T00:26:12.357Z,15.55
2023-05-06T00:28:39.078Z,15.41
2023-05-06T00:31:05.662Z,15.37
2023-05-06T00:33:32.186Z,15.45
2023-05-06T00:35:58.739Z,15.28
2023-05-06T00:38:26.067Z,15.28
2023-05-06T00:40:52.630Z,15.27
2023-05-06T00:43:19.180Z,15.27
2023-05-06T00:45:46.093Z,15.51
2023-05-06T00:48:12.823Z,15.44
2023-05-06T00:50:40.693Z,15.39
2023-05-06T00:53:09.623Z,15.46
2023-05-06T00:55:36.705Z,15.49
2023-05-06T00:58:04.566Z,15.46
2023-05-06T01:00:32.216Z,15.47
2023-05-06T01:02:58.871Z,15.44
2023-05-06T01:08:14.833Z,15.53
2023-05-06T01:10:49.841Z,15.41
2023-05-06T01:13:35.976Z,15.43
2023-05-06T01:16:05.020Z,15.47
2023-05-06T01:18:32.730Z,15.44
2023-05-06T01:22:02.898Z,15.54
2023-05-06T01:25:08.623Z,15.56
2023-05-06T01:27:35.408Z,15.69
2023-05-06T01:30:02.588Z,15.44
2023-05-06T01:32:49.470Z,15.47
2023-05-06T01:35:22.302Z,15.50
2023-05-06T01:38:13.227Z,15.48
2023-05-06T01:40:42.637Z,15.54
2023-05-06T01:43:11.726Z,15.47
2023-05-06T01:45:40.485Z,15.55
2023-05-06T01:48:07.817Z,15.47
2023-05-06T01:50:35.765Z,15.51
2023-05-06T01:53:03.388Z,15.50
2023-05-06T01:55:35.243Z,15.62
2023-05-06T01:58:01.783Z,15.60
2023-05-06T02:00:28.367Z,15.54
2023-05-06T02:02:55.032Z,15.54
2023-05-06T02:05:27.670Z,15.57
2023-05-06T02:08:03.296Z,15.59
2023-05-06T02:10:29.968Z,15.62
2023-05-06T02:12:57.468Z,15.59
2023-05-06T02:15:24.034Z,15.55
2023-05-06T02:17:50.920Z,15.56
2023-05-06T02:20:17.469Z,15.47
2023-05-06T02:22:44.013Z,15.37
2023-05-06T02:27:54.633Z,15.40
2023-05-06T02:30:25.201Z,15.30
2023-05-06T02:32:52.024Z,15.27
2023-05-06T02:35:18.616Z,15.09
2023-05-06T02:37:45.161Z,14.93
2023-05-06T02:40:27.178Z,15.05
2023-05-06T02:43:12.983Z,15.05
2023-05-06T02:45:41.119Z,14.77
2023-05-06T02:48:07.690Z,14.77
2023-05-06T02:50:35.393Z,14.70
2023-05-06T02:53:02.049Z,14.72
2023-05-06T02:55:28.645Z,14.73
2023-05-06T02:57:55.500Z,14.63
2023-05-06T03:00:25.466Z,14.53
2023-05-06T03:02:52.059Z,14.61
2023-05-06T03:05:18.884Z,14.60
2023-05-06T03:07:45.423Z,14.55
2023-05-06T03:10:18.031Z,14.73
2023-05-06T03:12:56.826Z,14.98
2023-05-06T03:15:23.660Z,14.84
2023-05-06T03:17:50.357Z,14.80
2023-05-06T03:20:17.230Z,14.80
2023-05-06T03:22:43.772Z,14.77
2023-05-06T03:25:10.539Z,14.95
2023-05-06T03:27:37.280Z,15.10
2023-05-06T03:50:14.407Z,15.04
2023-05-06T03:52:41.016Z,15.06
2023-05-06T03:55:08.290Z,15.04
2023-05-06T03:57:35.234Z,15.12
2023-05-06T04:00:01.784Z,15.11
2023-05-06T04:02:29.470Z,15.16
2023-05-06T04:04:56.329Z,15.30
2023-05-06T04:07:22.851Z,15.34
2023-05-06T04:09:49.669Z,15.33
2023-05-06T04:12:16.228Z,15.31
2023-05-06T04:14:42.786Z,15.36
2023-05-06T04:17:09.396Z,15.33
2023-05-06T04:19:35.938Z,15.44
2023-05-06T04:22:02.529Z,15.63
2023-05-06T04:24:29.421Z,15.75
2023-05-06T04:26:56.270Z,15.63
2023-05-06T04:29:23.159Z,15.60
2023-05-06T04:31:49.721Z,15.74
2023-05-06T04:34:16.667Z,15.65
2023-05-06T04:36:43.425Z,15.86
2023-05-06T04:39:10.566Z,15.88
2023-05-06T04:41:37.762Z,15.99
2023-05-06T04:44:04.820Z,16.12
2023-05-06T04:46:31.396Z,16.09
2023-05-06T04:48:58.514Z,16.20
2023-05-06T04:51:25.246Z,16.25
2023-05-06T04:53:52.680Z,16.34
2023-05-06T04:56:19.282Z,16.19
2023-05-06T04:58:55.011Z,16.35
2023-05-06T05:01:23.620Z,16.44
2023-05-06T05:03:50.375Z,16.49
2023-05-06T05:06:17.020Z,16.54
2023-05-06T05:08:43.583Z,16.59
2023-05-06T05:11:10.394Z,16.64
2023-05-06T05:13:37.352Z,16.66
2023-05-06T05:16:04.324Z,16.74
2023-05-06T05:23:57.064Z,17.04
2023-05-06T05:26:23.652Z,16.78
2023-05-06T05:28:50.300Z,16.98
2023-05-06T05:31:16.925Z,16.97
2023-05-06T05:33:52.725Z,16.93
2023-05-06T05:36:43.698Z,16.81
2023-05-06T05:39:15.862Z,16.91
2023-05-06T05:41:42.446Z,16.84
2023-05-06T06:08:26.481Z,17.70
2023-05-06T06:10:52.989Z,17.76
2023-05-06T06:13:19.713Z,18.11
2023-05-06T06:15:46.559Z,17.88
2023-05-06T06:18:13.229Z,17.84
2023-05-06T06:20:39.779Z,18.06
2023-05-06T06:23:26.284Z,18.10
2023-05-06T06:26:23.774Z,18.57
2023-05-06T06:28:50.302Z,18.53
2023-05-06T06:31:16.930Z,18.71
2023-05-06T06:33:43.501Z,18.95
2023-05-06T06:36:10.515Z,18.66
2023-05-06T06:38:37.130Z,19.11
2023-05-06T06:41:04.468Z,19.16
2023-05-06T06:43:31.135Z,19.08
2023-05-06T06:45:57.785Z,18.99
2023-05-06T06:48:24.481Z,19.39
2023-05-06T06:50:51.049Z,19.52
2023-05-06T06:53:17.632Z,19.73
2023-05-06T06:55:45.018Z,19.43
2023-05-06T06:58:11.689Z,19.79
2023-05-06T07:00:38.269Z,20.17
2023-05-06T07:03:05.126Z,20.27
2023-05-06T07:05:31.711Z,20.43
2023-05-06T07:07:58.299Z,20.34
2023-05-06T07:10:24.893Z,20.23
2023-05-06T07:12:51.857Z,20.45
2023-05-06T07:15:18.502Z,20.59
2023-05-06T07:17:45.161Z,20.82
2023-05-06T07:20:12.417Z,20.96
2023-05-06T07:22:39.180Z,20.86
2023-05-06T07:25:06.269Z,21.11
2023-05-06T07:27:33.047Z,21.23
2023-05-06T07:30:00.394Z,21.08
2023-05-06T07:32:27.016Z,21.27
2023-05-06T07:34:53.569Z,21.16
2023-05-06T07:37:20.223Z,21.28
2023-05-06T07:39:46.849Z,21.55
2023-05-06T07:42:13.471Z,21.70
2023-05-06T07:44:40.440Z,21.86
2023-05-06T07:47:07.353Z,22.13
2023-05-06T07:49:35.236Z,22.21
2023-05-06T07:52:03.453Z,22.16
2023-05-06T07:54:31.534Z,22.24
2023-05-06T07:56:58.241Z,22.31
2023-05-06T07:59:24.870Z,22.15
2023-05-06T08:01:51.606Z,22.56
2023-05-06T08:04:18.198Z,22.52
2023-05-06T08:06:44.741Z,22.67
2023-05-06T08:09:17.030Z,22.74
2023-05-06T08:11:46.477Z,22.63
2023-05-06T08:14:13.102Z,22.92
2023-05-06T08:16:39.906Z,22.89
2023-05-06T08:19:06.909Z,23.21
2023-05-06T08:21:33.443Z,22.91
2023-05-06T08:24:00.127Z,22.76
2023-05-06T08:26:26.687Z,22.94
2023-05-06T08:28:53.290Z,22.78
2023-05-06T08:31:19.880Z,22.61
2023-05-06T08:33:46.463Z,22.98
2023-05-06T08:36:13.028Z,22.38
2023-05-06T08:38:39.541Z,23.03
2023-05-06T08:41:13.692Z,22.91
2023-05-06T08:43:46.098Z,22.78
2023-05-06T08:46:13.654Z,22.95
2023-05-06T08:48:41.485Z,22.90
2023-05-06T08:51:08.932Z,23.19
2023-05-06T08:53:36.570Z,23.27
2023-05-06T08:56:06.898Z,23.54
2023-05-06T08:58:40.529Z,23.35
2023-05-06T09:01:07.283Z,23.52
2023-05-06T09:03:34.008Z,23.76
2023-05-06T09:06:00.805Z,23.75
2023-05-06T09:08:27.357Z,23.57
2023-05-06T09:10:53.980Z,23.63
2023-05-06T09:13:20.693Z,23.97
2023-05-06T09:15:49.019Z,24.23
2023-05-06T09:18:17.075Z,24.15
2023-05-06T09:20:49.454Z,24.42
2023-05-06T09:23:17.711Z,24.21
2023-05-06T09:25:46.395Z,24.50
2023-05-06T09:28:14.058Z,24.15
2023-05-06T09:30:42.467Z,24.25
2023-05-06T09:33:09.674Z,24.45
2023-05-06T09:35:38.935Z,24.24
2023-05-06T09:38:07.166Z,24.74
2023-05-06T09:40:37.971Z,24.72
2023-05-06T09:43:05.855Z,24.94
2023-05-06T09:45:33.078Z,24.56
2023-05-06T09:48:01.131Z,24.86
2023-05-06T09:50:28.283Z,25.37
2023-05-06T09:52:56.010Z,25.50
2023-05-06T09:55:26.546Z,25.17
2023-05-06T10:00:30.691Z,25.21
2023-05-06T10:02:58.832Z,25.51
2023-05-06T10:05:27.599Z,25.53
2023-05-06T10:10:29.917Z,24.60
2023-05-06T10:13:21.565Z,24.57
2023-05-06T10:16:40.188Z,24.23
2023-05-06T10:19:17.402Z,24.74
2023-05-06T10:21:50.606Z,25.29
2023-05-06T10:24:23.280Z,25.33
2023-05-06T10:26:54.857Z,25.58
2023-05-06T10:29:24.828Z,25.36
2023-05-06T10:31:56.928Z,25.19
2023-05-06T10:34:25.596Z,25.38
2023-05-06T10:36:57.440Z,25.55
2023-05-06T10:39:24.938Z,25.62
2023-05-06T10:41:51.494Z,25.78
2023-05-06T10:44:18.050Z,25.79
2023-05-06T10:47:10.721Z,25.62
2023-05-06T10:49:37.267Z,26.09
2023-05-06T10:52:12.952Z,26.38
2023-05-06T10:54:49.338Z,26.39
2023-05-06T10:57:16.031Z,26.21
2023-05-06T10:59:47.286Z,26.06
2023-05-06T11:04:41.625Z,25.68
2023-05-06T11:07:15.824Z,25.19
2023-05-06T11:09:59.358Z,25.53
2023-05-06T11:17:24.049Z,25.50
2023-05-06T11:20:22.906Z,25.84
2023-05-06T11:22:49.681Z,25.33
2023-05-06T11:25:43.205Z,25.43
2023-05-06T11:30:54.878Z,25.70
2023-05-06T11:33:24.119Z,25.77
2023-05-06T11:35:50.726Z,26.03
2023-05-06T11:38:17.570Z,26.12
2023-05-06T11:40:44.194Z,26.45
2023-05-06T11:43:19.810Z,26.53
2023-05-06T11:45:48.323Z,26.53
2023-05-06T11:48:16.138Z,26.44
2023-05-06T11:50:47.649Z,26.41
2023-05-06T11:53:37.221Z,26.42
2023-05-06T11:56:58.100Z,26.28
2023-05-06T11:59:34.481Z,26.22
2023-05-06T12:02:03.907Z,26.29
2023-05-06T12:04:47.500Z,26.23
2023-05-06T12:07:16.338Z,26.30
2023-05-06T12:09:46.605Z,26.29
2023-05-06T12:15:10.139Z,26.22
2023-05-06T12:17:36.938Z,26.16
2023-05-06T12:20:04.545Z,25.95
2023-05-06T12:29:39.695Z,25.23
2023-05-06T12:32:10.773Z,25.55
2023-05-06T12:34:41.427Z,25.76
2023-05-06T12:37:11.594Z,25.74
2023-05-06T12:39:39.642Z,25.78
2023-05-06T12:44:46.609Z,25.75
2023-05-06T12:47:24.321Z,25.71
2023-05-06T12:49:53.716Z,25.71
2023-05-06T12:52:22.612Z,25.76
2023-05-06T12:54:49.822Z,25.81
2023-05-06T12:57:16.677Z,25.81
2023-05-06T13:00:07.466Z,25.70
2023-05-06T13:05:09.673Z,25.60
2023-05-06T13:07:36.292Z,25.52
2023-05-06T13:10:03.615Z,25.42
2023-05-06T13:12:30.200Z,25.31
2023-05-06T13:14:56.757Z,25.28
2023-05-06T13:17:23.664Z,25.18
2023-05-06T13:19:51.091Z,25.16
2023-05-06T13:22:17.887Z,25.30
2023-05-06T13:24:44.451Z,25.37
2023-05-06T13:27:11.596Z,25.48
2023-05-06T13:29:38.630Z,25.52
2023-05-06T13:32:07.923Z,25.56
2023-05-06T13:34:35.322Z,25.54
2023-05-06T13:37:01.914Z,25.64
2023-05-06T13:39:28.535Z,25.59
2023-05-06T13:41:55.233Z,25.51
2023-05-06T13:44:22.294Z,25.48
2023-05-06T13:46:48.988Z,25.48
2023-05-06T13:49:15.904Z,25.31
2023-05-06T13:51:42.602Z,24.77
2023-05-06T13:54:09.269Z,24.71
2023-05-06T13:56:36.139Z,24.47
2023-05-06T13:59:02.717Z,24.11
2023-05-06T14:01:29.284Z,24.21
2023-05-06T14:03:55.883Z,23.97
2023-05-06T14:06:22.440Z,23.68
2023-05-06T14:08:49.039Z,23.64
2023-05-06T14:11:15.654Z,23.68
2023-05-06T14:13:42.199Z,23.77
2023-05-06T14:16:08.833Z,23.56
2023-05-06T14:18:36.564Z,23.30
2023-05-06T14:21:03.688Z,23.05
2023-05-06T14:23:30.483Z,22.94
2023-05-06T14:25:57.402Z,22.89
2023-05-06T14:28:23.935Z,22.61
2023-05-06T14:30:51.438Z,22.67
2023-05-06T14:33:18.002Z,22.76
2023-05-06T14:35:46.159Z,22.46
2023-05-06T14:38:12.815Z,22.52
2023-05-06T14:40:39.443Z,22.63
2023-05-06T14:43:07.622Z,22.46
2023-05-06T14:45:34.557Z,22.59
2023-05-06T14:48:01.409Z,22.60
2023-05-06T14:50:28.017Z,22.51
2023-05-06T14:52:54.560Z,22.54
2023-05-06T14:55:21.367Z,22.82
2023-05-06T14:57:48.181Z,22.84
2023-05-06T15:00:16.038Z,22.88
2023-05-06T15:02:42.770Z,22.85
2023-05-06T15:05:10.831Z,22.85
2023-05-06T15:07:37.943Z,22.93
2023-05-06T15:10:05.195Z,23.09
2023-05-06T15:12:33.504Z,22.94
2023-05-06T15:15:00.073Z,22.80
2023-05-06T15:17:26.644Z,22.65
2023-05-06T15:19:53.554Z,22.52
2023-05-06T15:22:20.087Z,22.64
2023-05-06T15:24:46.962Z,22.60
2023-05-06T15:27:13.679Z,22.71
2023-05-06T15:29:40.277Z,22.78
2023-05-06T15:32:07.361Z,22.70
2023-05-06T15:34:34.127Z,22.56
2023-05-06T15:37:01.799Z,22.68
2023-05-06T15:39:28.879Z,22.70
2023-05-06T15:41:58.252Z,22.48
2023-05-06T15:46:53.260Z,22.40
2023-05-06T15:49:48.939Z,22.45
2023-05-06T15:52:06.430Z,22.51
2023-05-06T15:54:36.154Z,22.60
2023-05-06T15:57:07.176Z,22.65
2023-05-06T15:59:34.144Z,22.75
2023-05-06T16:02:26.344Z,22.82
2023-05-06T16:04:47.773Z,22.71
2023-05-06T16:07:15.258Z,22.70
2023-05-06T16:09:42.761Z,22.75
2023-05-06T16:12:10.062Z,22.84
2023-05-06T16:14:36.700Z,22.98
2023-05-06T16:17:03.554Z,23.00
2023-05-06T16:19:34.976Z,23.10
2023-05-06T16:22:02.286Z,23.02
2023-05-06T16:24:28.863Z,22.92
2023-05-06T16:26:58.236Z,22.92
2023-05-06T16:29:25.035Z,22.90
2023-05-06T16:31:51.653Z,22.88
2023-05-06T16:34:18.305Z,22.96
2023-05-06T16:36:45.956Z,22.94
2023-05-06T16:39:12.591Z,22.88
2023-05-06T16:41:39.186Z,22.95
2023-05-06T16:44:05.834Z,22.99
2023-05-06T16:46:33.273Z,23.00
2023-05-06T16:48:59.933Z,22.93
2023-05-06T16:51:29.621Z,22.91
2023-05-06T16:53:56.340Z,22.87
2023-05-06T16:56:22.981Z,22.84
2023-05-06T16:58:49.601Z,22.79
2023-05-06T17:01:16.323Z,22.77
2023-05-06T17:03:43.029Z,22.67
2023-05-06T17:06:09.664Z,22.64
2023-05-06T17:08:37.243Z,22.65
2023-05-06T17:11:07.044Z,22.65
2023-05-06T17:13:34.136Z,22.64
2023-05-06T17:16:00.941Z,22.65
2023-05-06T17:18:27.540Z,22.60
2023-05-06T17:20:56.639Z,22.54
2023-05-06T17:23:24.322Z,22.48
2023-05-06T17:25:51.572Z,22.47
2023-05-06T17:28:20.598Z,22.45
2023-05-06T17:30:47.178Z,22.40
2023-05-06T17:33:13.893Z,22.40
2023-05-06T17:35:40.515Z,22.36
2023-05-06T17:38:07.797Z,22.32
2023-05-06T17:40:34.488Z,22.30
2023-05-06T17:43:01.079Z,22.26
2023-05-06T17:45:28.581Z,22.24
2023-05-06T17:47:56.485Z,22.19
2023-05-06T17:50:23.471Z,22.15
2023-05-06T17:52:52.338Z,22.13
2023-05-06T17:55:21.530Z,22.10
2023-05-06T17:57:48.644Z,22.04
2023-05-06T18:00:16.910Z,21.95
2023-05-06T18:02:44.485Z,21.94
2023-05-06T18:05:11.911Z,21.93
2023-05-06T18:07:39.145Z,21.89
2023-05-06T18:10:06.579Z,21.88
2023-05-06T18:12:33.269Z,21.85
2023-05-06T18:15:00.729Z,21.84
2023-05-06T18:17:27.404Z,21.78
2023-05-06T18:19:54.067Z,21.71
2023-05-06T18:22:20.629Z,21.65
2023-05-06T18:24:47.244Z,21.58
2023-05-06T18:27:13.780Z,21.45
2023-05-06T18:29:41.362Z,21.35
2023-05-06T18:32:08.246Z,21.28
2023-05-06T18:34:34.968Z,21.23
2023-05-06T18:37:01.558Z,21.14
2023-05-06T18:39:28.123Z,21.05
2023-05-06T18:41:54.679Z,21.06
2023-05-06T18:44:21.297Z,20.99
2023-05-06T18:46:47.854Z,20.99
2023-05-06T18:49:15.128Z,20.99
2023-05-06T18:51:41.774Z,20.83
2023-05-06T18:54:08.382Z,20.79
2023-05-06T18:56:36.388Z,20.80
2023-05-06T18:59:03.019Z,20.90
2023-05-06T19:01:29.876Z,20.92
2023-05-06T19:03:56.918Z,20.94
2023-05-06T19:06:23.849Z,20.89
2023-05-06T19:08:50.649Z,20.89
2023-05-06T19:11:21.269Z,20.87
2023-05-06T19:13:47.863Z,20.81
2023-05-06T19:16:15.050Z,20.83
2023-05-06T19:18:41.838Z,20.72
2023-05-06T19:21:15.207Z,20.60
2023-05-06T19:23:41.814Z,20.42
2023-05-06T19:26:11.192Z,20.36
2023-05-06T19:28:39.484Z,20.30
2023-05-06T19:31:09.383Z,20.22
2023-05-06T19:33:37.177Z,20.19
2023-05-06T19:36:04.413Z,20.38
2023-05-06T19:38:31.022Z,20.50
2023-05-06T19:40:57.679Z,20.53
2023-05-06T19:43:24.534Z,20.56
2023-05-06T19:45:51.265Z,20.43
2023-05-06T19:48:19.316Z,20.32
2023-05-06T19:50:45.892Z,20.19
2023-05-06T19:53:12.455Z,19.95
2023-05-06T19:55:38.983Z,19.93
2023-05-06T19:58:05.606Z,20.09
2023-05-06T20:00:32.517Z,20.06
2023-05-06T20:03:00.114Z,20.11
2023-05-06T20:05:31.464Z,20.06
2023-05-06T20:07:59.913Z,20.00
2023-05-06T20:10:27.376Z,19.81
2023-05-06T20:12:56.073Z,19.82
2023-05-06T20:15:24.053Z,19.85
2023-05-06T20:17:50.623Z,19.81
2023-05-06T20:20:17.567Z,19.86
2023-05-06T20:22:44.141Z,19.72
2023-05-06T20:25:13.290Z,19.78
2023-05-06T20:27:40.029Z,19.82
2023-05-06T20:30:08.123Z,19.97
2023-05-06T20:32:34.952Z,19.98
2023-05-06T20:35:01.644Z,19.97
2023-05-06T20:37:28.760Z,20.02
2023-05-06T20:39:55.337Z,20.03
2023-05-06T20:42:21.900Z,20.10
2023-05-06T20:44:53.745Z,20.14
2023-05-06T20:47:20.331Z,20.13
2023-05-06T20:49:46.904Z,20.13
2023-05-06T20:52:14.685Z,20.19
2023-05-06T20:54:42.857Z,20.18
2023-05-06T20:57:09.957Z,20.22
2023-05-06T20:59:36.839Z,20.22
2023-05-06T21:02:04.417Z,20.15
2023-05-06T21:04:31.360Z,20.19
2023-05-06T21:06:58.104Z,20.28
2023-05-06T21:09:26.729Z,20.31
2023-05-06T21:11:53.586Z,20.22
2023-05-06T21:14:21.694Z,20.03
2023-05-06T21:16:48.303Z,19.88
2023-05-06T21:19:14.880Z,19.69
2023-05-06T21:21:41.496Z,19.73
2023-05-06T21:24:08.094Z,19.86
2023-05-06T21:26:34.968Z,19.97
2023-05-06T21:29:01.562Z,20.03
2023-05-06T21:34:19.744Z,19.86
2023-05-06T21:36:46.429Z,19.77
2023-05-06T21:39:16.102Z,19.79
2023-05-06T21:41:42.755Z,19.86
2023-05-06T22:04:15.313Z,19.59
2023-05-06T22:06:42.039Z,19.55
2023-05-06T22:09:09.602Z,19.62
2023-05-06T22:11:38.243Z,19.71
2023-05-06T22:18:07.973Z,19.48
2023-05-06T22:20:36.587Z,19.41
2023-05-06T22:23:03.836Z,19.37
2023-05-06T22:25:30.430Z,19.43
2023-05-06T22:27:57.040Z,19.41
2023-05-06T22:30:26.651Z,19.33
2023-05-06T22:35:34.788Z,18.98
2023-05-06T22:38:01.379Z,18.83
2023-05-06T22:40:28.023Z,18.99
2023-05-06T22:42:55.234Z,19.08
2023-05-06T22:45:21.920Z,19.06
2023-05-06T22:54:05.987Z,19.02
2023-05-06T22:56:32.539Z,18.95
2023-05-06T22:58:59.077Z,18.85
2023-05-06T23:01:31.634Z,18.83
2023-05-06T23:04:01.103Z,18.61
2023-05-06T23:11:38.241Z,18.79
2023-05-06T23:14:04.981Z,18.68
2023-05-06T23:16:32.331Z,18.35
2023-05-06T23:18:58.997Z,18.34
2023-05-06T23:25:34.721Z,18.33
2023-05-06T23:28:01.320Z,18.34
2023-05-06T23:30:28.052Z,18.23
2023-05-06T23:32:54.781Z,18.13
2023-05-06T23:35:21.331Z,18.16
2023-05-06T23:37:47.905Z,18.26
2023-05-06T23:43:11.343Z,18.50
2023-05-06T23:45:39.743Z,18.50
2023-05-06T23:48:06.609Z,18.63
2023-05-06T23:50:33.280Z,18.64
2023-05-06T23:52:59.874Z,18.66
2023-05-06T23:55:26.798Z,18.61
